Time;durP1;ratioP1;P1;durP2;ratioP2;P2;SDS_P1;SDS_P2;PMS_P1;PMS_P2;Temp;Humidity;BMP_temperature;BMP_pressure;BME280_temperature;BME280_humidity;BME280_pressure;Samples;Min_cycle;Max_cycle;Signal;HPM_P1;HPM_P2
2023/09/07 00:00:49;;;;;;;9.80;5.85;;;16.50;99.90;;;;;;4989596;28;87339;-75
2023/09/07 00:03:15;;;;;;;9.80;6.30;;;16.50;99.90;;;;;;4988722;28;86312;-76
2023/09/07 00:05:41;;;;;;;10.57;5.85;;;16.50;99.90;;;;;;4988065;28;87105;-75
2023/09/07 00:08:07;;;;;;;11.18;6.00;;;16.40;99.90;;;;;;4989424;28;87508;-75
2023/09/07 00:10:36;;;;;;;9.43;6.22;;;16.40;99.90;;;;;;4989535;28;87328;-75
2023/09/07 00:13:03;;;;;;;10.18;6.60;;;16.30;99.90;;;;;;4988304;28;85999;-75
2023/09/07 00:15:29;;;;;;;12.38;7.03;;;16.30;99.90;;;;;;4988352;28;86456;-75
2023/09/07 00:17:56;;;;;;;10.25;6.60;;;16.20;99.90;;;;;;4988090;28;87428;-75
2023/09/07 00:20:23;;;;;;;11.57;7.60;;;16.20;99.90;;;;;;4988944;28;87346;-75
2023/09/07 00:22:49;;;;;;;14.30;6.45;;;16.10;99.90;;;;;;4987763;28;86235;-75
2023/09/07 00:25:15;;;;;;;8.95;6.30;;;16.10;99.90;;;;;;4989394;28;86777;-75
2023/09/07 00:27:40;;;;;;;9.65;6.53;;;16.10;99.90;;;;;;4987780;28;87603;-75
2023/09/07 00:30:09;;;;;;;7.53;6.00;;;16.00;99.90;;;;;;4988447;28;87537;-75
2023/09/07 00:32:36;;;;;;;8.52;6.30;;;16.00;99.90;;;;;;4979357;28;86520;-76
2023/09/07 00:35:02;;;;;;;9.60;6.28;;;16.00;99.90;;;;;;4987895;28;86328;-75
2023/09/07 00:37:28;;;;;;;9.43;7.00;;;16.00;99.90;;;;;;4988749;28;86636;-75
2023/09/07 00:39:53;;;;;;;10.73;6.78;;;15.90;99.90;;;;;;4989506;28;86393;-75
2023/09/07 00:42:19;;;;;;;8.75;6.90;;;15.90;99.90;;;;;;4987524;28;86747;-75
2023/09/07 00:44:44;;;;;;;8.60;6.80;;;15.90;99.90;;;;;;4988722;28;86045;-75
2023/09/07 00:47:11;;;;;;;13.43;7.25;;;15.90;99.90;;;;;;4988980;28;87372;-75
2023/09/07 00:49:37;;;;;;;8.90;6.28;;;15.80;99.90;;;;;;4989492;28;87662;-76
2023/09/07 00:52:05;;;;;;;10.38;6.90;;;15.80;99.90;;;;;;4989678;28;86374;-76
2023/09/07 00:54:31;;;;;;;9.15;6.65;;;15.80;99.90;;;;;;4988334;28;86683;-76
2023/09/07 00:56:57;;;;;;;8.20;6.50;;;15.70;99.90;;;;;;4987138;28;88834;-75
2023/09/07 00:59:24;;;;;;;10.93;6.93;;;15.70;99.90;;;;;;4987819;28;87120;-76
2023/09/07 01:01:49;;;;;;;8.43;6.40;;;15.70;99.90;;;;;;4987884;28;86146;-74
2023/09/07 01:04:15;;;;;;;12.10;6.28;;;15.70;99.90;;;;;;4989041;28;85947;-75
2023/09/07 01:07:12;;;;;;;8.52;6.40;;;15.60;99.90;;;;;;4987437;28;86746;-75
2023/09/07 01:09:41;;;;;;;8.88;6.63;;;15.60;99.90;;;;;;4985518;28;86636;-75
2023/09/07 01:12:10;;;;;;;8.32;6.28;;;15.60;99.90;;;;;;4987747;28;87061;-76
2023/09/07 01:14:36;;;;;;;10.48;6.35;;;15.50;99.90;;;;;;4970046;28;86609;-76
2023/09/07 01:17:03;;;;;;;8.45;6.22;;;15.50;99.90;;;;;;4987802;28;86549;-76
2023/09/07 01:19:29;;;;;;;9.38;6.68;;;15.50;99.90;;;;;;4986980;28;86556;-76
2023/09/07 01:21:55;;;;;;;12.65;7.22;;;15.40;99.90;;;;;;4988205;28;85830;-76
2023/09/07 01:24:23;;;;;;;12.80;7.03;;;15.40;99.90;;;;;;4987755;28;86109;-75
2023/09/07 01:26:49;;;;;;;8.02;6.90;;;15.30;99.90;;;;;;4988003;28;87788;-76
2023/09/07 01:29:18;;;;;;;11.07;6.78;;;15.30;99.90;;;;;;4987621;28;86379;-75
2023/09/07 01:31:44;;;;;;;9.68;7.05;;;15.30;99.90;;;;;;4983351;28;85907;-74
2023/09/07 01:34:09;;;;;;;10.93;6.45;;;15.20;99.90;;;;;;4985311;28;86193;-75
2023/09/07 01:36:35;;;;;;;9.63;6.53;;;15.20;99.90;;;;;;4972756;28;90774;-75
2023/09/07 01:39:02;;;;;;;8.18;6.47;;;15.20;99.90;;;;;;4964909;28;90172;-74
2023/09/07 01:41:29;;;;;;;10.60;7.32;;;15.20;99.90;;;;;;4966280;28;86149;-75
2023/09/07 01:43:54;;;;;;;10.00;7.65;;;15.10;99.90;;;;;;4984988;28;86368;-75
2023/09/07 01:46:20;;;;;;;11.65;6.82;;;15.10;99.90;;;;;;4983346;28;87032;-75
2023/09/07 01:48:45;;;;;;;9.40;6.78;;;15.10;99.90;;;;;;4969216;28;90517;-75
2023/09/07 01:51:11;;;;;;;10.20;7.25;;;15.00;99.90;;;;;;4990002;28;86245;-75
2023/09/07 01:53:37;;;;;;;9.73;6.55;;;15.00;99.90;;;;;;4987209;28;86003;-75
2023/09/07 01:56:02;;;;;;;8.77;6.95;;;15.00;99.90;;;;;;4987328;28;86869;-75
2023/09/07 01:58:28;;;;;;;12.02;6.60;;;14.90;99.90;;;;;;4989290;28;86875;-76
2023/09/07 02:00:58;;;;;;;11.52;6.57;;;14.90;99.90;;;;;;4988622;28;86240;-74
2023/09/07 02:03:24;;;;;;;10.07;7.00;;;14.90;99.90;;;;;;4988673;28;86527;-75
2023/09/07 02:05:49;;;;;;;8.98;7.05;;;14.90;99.90;;;;;;4988528;28;86144;-75
2023/09/07 02:08:15;;;;;;;11.05;6.78;;;14.90;99.90;;;;;;4987412;28;87184;-74
2023/09/07 02:10:41;;;;;;;7.65;6.15;;;14.80;99.90;;;;;;4987583;28;85813;-75
2023/09/07 02:13:06;;;;;;;11.10;6.55;;;14.80;99.90;;;;;;4990383;28;86464;-75
2023/09/07 02:15:33;;;;;;;10.35;6.55;;;14.80;99.90;;;;;;4988812;28;87235;-74
2023/09/07 02:17:58;;;;;;;8.35;6.07;;;14.80;99.90;;;;;;4987701;28;87637;-74
2023/09/07 02:20:24;;;;;;;11.40;6.60;;;14.70;99.90;;;;;;4988548;28;85989;-75
2023/09/07 02:22:50;;;;;;;10.15;6.05;;;14.70;99.90;;;;;;4986289;28;86304;-74
2023/09/07 02:25:16;;;;;;;9.05;7.00;;;14.70;99.90;;;;;;4990433;28;88324;-75
2023/09/07 02:27:42;;;;;;;8.73;6.60;;;14.70;99.90;;;;;;4971446;28;89981;-75
2023/09/07 02:30:08;;;;;;;8.25;6.40;;;14.60;99.90;;;;;;4987864;28;85860;-75
2023/09/07 02:32:33;;;;;;;9.73;6.75;;;14.60;99.90;;;;;;4987048;28;86669;-74
2023/09/07 02:34:59;;;;;;;11.30;6.88;;;14.60;99.90;;;;;;4989016;28;86974;-75
2023/09/07 02:37:24;;;;;;;10.25;6.60;;;14.60;99.90;;;;;;4987066;28;86583;-75
2023/09/07 02:39:50;;;;;;;11.90;6.07;;;14.50;99.90;;;;;;4970146;28;85891;-75
2023/09/07 02:42:16;;;;;;;9.00;6.47;;;14.50;99.90;;;;;;4985507;28;86863;-75
2023/09/07 02:44:41;;;;;;;10.95;6.10;;;14.50;99.90;;;;;;4984296;28;87749;-75
2023/09/07 02:47:07;;;;;;;9.80;5.90;;;14.50;99.90;;;;;;4986920;28;86586;-75
2023/09/07 04:39:08;;;;;;;;;;;;;;;;;;;;;
2023/09/07 05:28:34;;;;;;;22.70;9.82;;;13.30;99.90;;;;;;5933389;23;86135;-75
2023/09/07 05:35:27;;;;;;;;;;;;;;;;;;;;;
2023/09/07 05:42:30;;;;;;;;;;;;;;;;;;;;;
2023/09/07 05:48:58;;;;;;;42.58;10.35;;;13.50;99.90;;;;;;5802571;24;86514;-75
2023/09/07 05:55:57;;;;;;;19.35;9.52;;;13.60;99.90;;;;;;5651819;24;89778;-75
2023/09/07 06:02:32;;;;;;;17.00;10.02;;;13.80;99.90;;;;;;5801611;24;92379;-74
2023/09/07 06:19:50;;;;;;;15.70;10.80;;;14.40;99.90;;;;;;5109217;27;86762;-76
2023/09/07 06:22:49;;;;;;;18.08;10.13;;;14.50;99.90;;;;;;4410340;28;15714120;-73
2023/09/07 06:25:15;;;;;;;13.95;9.73;;;14.60;99.90;;;;;;4994111;27;87576;-75
2023/09/07 06:27:43;;;;;;;16.30;10.77;;;14.70;99.90;;;;;;5093819;27;86184;-75
2023/09/07 06:30:12;;;;;;;17.58;11.32;;;14.90;99.90;;;;;;5101890;27;86427;-75
2023/09/07 06:32:41;;;;;;;22.65;11.85;;;14.90;99.90;;;;;;5103393;27;87096;-74
2023/09/07 08:12:02;;;;;;;10.60;7.25;;;19.50;99.90;;;;;;4985464;28;86611;-75
2023/09/07 08:14:31;;;;;;;15.80;7.40;;;19.70;99.90;;;;;;4976434;28;86200;-74
2023/09/07 08:16:57;;;;;;;13.35;7.00;;;19.90;99.80;;;;;;4969793;28;87450;-75
2023/09/07 08:19:43;;;;;;;11.45;6.93;;;20.00;99.80;;;;;;5030573;27;90376;-75
2023/09/07 08:22:16;;;;;;;19.48;7.40;;;20.20;99.40;;;;;;5048054;27;86467;-75
2023/09/07 08:24:46;;;;;;;31.98;8.68;;;20.40;99.30;;;;;;5067852;27;86458;-75
2023/09/07 08:27:18;;;;;;;17.15;6.85;;;20.60;99.20;;;;;;5067796;27;87212;-75
2023/09/07 08:29:48;;;;;;;29.17;7.30;;;20.80;98.90;;;;;;5040083;27;90593;-75
2023/09/07 08:32:16;;;;;;;10.15;6.22;;;21.00;98.30;;;;;;5055156;27;86447;-75
2023/09/07 08:34:42;;;;;;;10.90;6.68;;;21.10;98.00;;;;;;5047028;27;86725;-75
2023/09/07 08:37:11;;;;;;;13.40;7.20;;;21.20;97.70;;;;;;5066138;27;86963;-75
2023/09/07 08:39:39;;;;;;;9.82;5.60;;;21.30;97.70;;;;;;5066469;27;86325;-74
2023/09/07 08:42:05;;;;;;;26.45;7.75;;;21.50;97.70;;;;;;5067753;27;86548;-75
2023/09/07 08:44:35;;;;;;;11.65;6.55;;;21.70;97.60;;;;;;5067343;27;86720;-75
2023/09/07 08:47:03;;;;;;;9.30;6.07;;;21.90;96.70;;;;;;5065921;27;87048;-76
2023/09/07 08:49:32;;;;;;;11.45;6.30;;;22.10;96.60;;;;;;5048579;27;90407;-76
2023/09/07 08:52:00;;;;;;;14.07;7.00;;;22.30;96.70;;;;;;5069913;27;86366;-76
2023/09/07 08:54:26;;;;;;;12.35;5.75;;;22.50;96.40;;;;;;5069358;27;86510;-76
2023/09/07 08:56:53;;;;;;;9.25;5.40;;;22.70;96.40;;;;;;5063316;27;87474;-76
2023/09/07 08:59:20;;;;;;;8.93;5.63;;;22.80;95.80;;;;;;5067107;27;86513;-76
2023/09/07 09:01:46;;;;;;;7.28;4.97;;;23.10;95.20;;;;;;5067257;27;86265;-75
2023/09/07 09:04:13;;;;;;;9.20;4.82;;;23.30;95.10;;;;;;5067337;27;86180;-75
2023/09/07 09:06:38;;;;;;;7.93;4.72;;;23.50;94.60;;;;;;5066809;27;87075;-76
2023/09/07 09:09:07;;;;;;;8.35;4.10;;;23.70;93.80;;;;;;5062532;27;86668;-76
2023/09/07 09:11:32;;;;;;;8.80;4.63;;;23.90;92.70;;;;;;5063793;27;87664;-76
2023/09/07 09:13:58;;;;;;;4.72;4.18;;;24.10;92.70;;;;;;5064269;27;86014;-75
2023/09/07 09:16:25;;;;;;;8.32;4.28;;;24.30;92.40;;;;;;5063986;27;87620;-75
2023/09/07 09:19:51;;;;;;;11.93;4.93;;;24.50;92.20;;;;;;5062965;27;87825;-77
2023/09/07 09:22:17;;;;;;;8.38;4.43;;;24.80;91.80;;;;;;5044271;27;86523;-76
2023/09/07 09:24:43;;;;;;;6.13;3.92;;;25.00;91.70;;;;;;5068331;27;86639;-76
2023/09/07 09:27:09;;;;;;;8.40;4.55;;;25.30;91.90;;;;;;5066359;27;88101;-75
2023/09/07 09:29:35;;;;;;;13.02;3.95;;;25.50;91.40;;;;;;5067745;27;85779;-76
2023/09/07 09:32:06;;;;;;;10.05;4.28;;;25.70;90.40;;;;;;5066115;27;86714;-78
2023/09/07 09:34:38;;;;;;;5.15;3.75;;;25.90;89.40;;;;;;5068668;27;86368;-78
2023/09/07 09:37:12;;;;;;;8.87;3.83;;;26.10;88.20;;;;;;5048463;27;91044;-77
2023/09/07 09:39:41;;;;;;;11.57;3.72;;;26.30;89.20;;;;;;5067709;27;86380;-76
2023/09/07 09:42:08;;;;;;;5.30;3.60;;;26.50;85.90;;;;;;5065997;27;86842;-76
2023/09/07 09:44:37;;;;;;;6.47;3.78;;;26.70;87.40;;;;;;5065545;27;86382;-77
2023/09/07 09:47:10;;;;;;;7.53;3.63;;;26.80;86.10;;;;;;5067772;27;87679;-78
2023/09/07 10:20:32;;;;;;;;;;;;;;;;;;;;;
2023/09/07 10:26:47;;;;;;;7.50;3.47;;;30.00;73.40;;;;;;4825374;28;87666;-77
2023/09/07 10:29:12;;;;;;;7.03;3.03;;;30.10;72.70;;;;;;4878464;28;87934;-75
2023/09/07 10:31:38;;;;;;;4.70;2.60;;;30.30;69.80;;;;;;4977865;27;85834;-75
2023/09/07 10:34:17;;;;;;;4.93;3.08;;;30.40;70.90;;;;;;5071804;27;86098;-76
2023/09/07 10:37:07;;;;;;;4.28;2.75;;;30.60;68.20;;;;;;5072196;27;92666;-76
2023/09/07 10:39:57;;;;;;;5.60;2.88;;;30.90;69.40;;;;;;5036427;27;88632;-77
2023/09/07 10:42:44;;;;;;;;;;;;;;;;;;;;;
2023/09/07 10:48:41;;;;;;;5.80;3.15;;;31.40;66.10;;;;;;4932565;28;86089;-76
2023/09/07 10:51:09;;;;;;;3.83;2.40;;;31.40;64.50;;;;;;5027762;27;87757;-77
2023/09/07 10:53:42;;;;;;;6.68;3.58;;;31.60;64.70;;;;;;5042549;27;86600;-74
2023/09/07 10:56:08;;;;;;;3.38;2.63;;;31.80;65.50;;;;;;5044962;27;86368;-77
2023/09/07 10:58:40;;;;;;;5.47;2.67;;;32.10;62.50;;;;;;5041687;27;89862;-79
2023/09/07 11:01:20;;;;;;;6.13;2.63;;;32.20;63.90;;;;;;5038617;27;89949;-77
2023/09/07 11:03:56;;;;;;;5.18;2.90;;;32.50;63.90;;;;;;5069940;27;86456;-77
2023/09/07 11:06:31;;;;;;;5.70;2.65;;;32.70;61.50;;;;;;5062986;27;87716;-77
2023/09/07 11:09:12;;;;;;;10.95;2.88;;;32.70;57.30;;;;;;5049754;27;90806;-77
2023/09/07 11:11:42;;;;;;;5.82;2.50;;;32.70;61.80;;;;;;5052820;27;88855;-77
2023/09/07 11:14:13;;;;;;;4.80;2.47;;;32.90;59.80;;;;;;5035472;27;86199;-77
2023/09/07 11:16:43;;;;;;;3.00;2.40;;;33.10;59.80;;;;;;5069148;27;85832;-76
2023/09/07 11:19:14;;;;;;;5.78;2.30;;;33.30;56.20;;;;;;5052249;27;88921;-77
2023/09/07 11:21:51;;;;;;;4.78;2.33;;;33.30;58.50;;;;;;5070439;27;86789;-76
2023/09/07 11:24:24;;;;;;;4.15;2.13;;;33.50;57.90;;;;;;5050211;27;86632;-77
2023/09/07 11:29:21;;;;;;;3.75;2.28;;;34.00;57.00;;;;;;5026420;27;89895;-77
2023/09/07 11:31:51;;;;;;;3.15;2.50;;;34.30;58.40;;;;;;5042731;27;90162;-76
2023/09/07 11:34:17;;;;;;;9.10;3.75;;;34.50;60.40;;;;;;5051278;27;86147;-77
2023/09/07 11:36:49;;;;;;;5.45;2.40;;;34.80;55.40;;;;;;5066749;27;86450;-77
2023/09/07 11:39:14;;;;;;;3.00;2.20;;;34.90;54.10;;;;;;5032850;27;90352;-77
2023/09/07 11:41:44;;;;;;;3.30;2.28;;;35.00;55.70;;;;;;5040381;27;90115;-78
2023/09/07 11:44:12;;;;;;;5.40;2.22;;;35.20;54.20;;;;;;5049935;27;87160;-77
2023/09/07 11:46:39;;;;;;;15.30;4.43;;;35.30;55.20;;;;;;5067960;27;86933;-76
2023/09/07 11:49:05;;;;;;;5.15;2.50;;;35.50;55.60;;;;;;5032695;27;89989;-75
2023/09/07 11:51:40;;;;;;;3.05;2.00;;;35.70;53.00;;;;;;5067370;27;86574;-76
2023/09/07 11:54:37;;;;;;;3.40;2.17;;;35.80;54.60;;;;;;5031232;27;86119;-75
2023/09/07 11:57:34;;;;;;;6.20;2.30;;;36.10;54.20;;;;;;5044387;27;86426;-76
2023/09/07 12:00:10;;;;;;;5.80;2.67;;;36.20;53.00;;;;;;5053920;27;87815;-76
2023/09/07 12:02:56;;;;;;;5.78;2.42;;;36.10;50.50;;;;;;5033723;27;86527;-75
2023/09/07 12:06:13;;;;;;;28.33;4.93;;;36.20;53.90;;;;;;5049191;27;86654;-75
2023/09/07 12:08:42;;;;;;;4.20;2.38;;;36.60;52.60;;;;;;5005766;27;86612;-74
2023/09/07 12:11:12;;;;;;;3.35;2.20;;;36.60;50.80;;;;;;5054306;27;87550;-74
2023/09/07 12:13:37;;;;;;;3.25;2.05;;;36.60;50.40;;;;;;5041551;27;89404;-74
2023/09/07 12:16:15;;;;;;;3.20;2.45;;;36.60;52.90;;;;;;5060426;27;85852;-75
2023/09/07 12:18:41;;;;;;;4.35;2.00;;;36.90;52.80;;;;;;5063970;27;86953;-75
2023/09/07 12:21:12;;;;;;;3.13;2.00;;;36.90;51.50;;;;;;5042701;27;88872;-74
2023/09/07 12:23:37;;;;;;;8.02;2.63;;;36.90;50.80;;;;;;5059749;27;86533;-75
2023/09/07 12:26:06;;;;;;;14.35;3.97;;;37.10;52.60;;;;;;5060271;27;86589;-75
2023/09/07 12:28:32;;;;;;;4.30;2.08;;;37.30;53.10;;;;;;5058828;27;85809;-74
2023/09/07 12:30:58;;;;;;;3.33;2.10;;;37.50;50.30;;;;;;5060861;27;88015;-75
2023/09/07 12:33:30;;;;;;;12.82;2.60;;;37.50;50.70;;;;;;5044033;27;88192;-75
2023/09/07 12:35:55;;;;;;;13.57;2.70;;;37.70;49.20;;;;;;5043339;27;87044;-74
2023/09/07 12:38:27;;;;;;;2.35;2.10;;;37.70;50.80;;;;;;5061583;27;86714;-74
2023/09/07 12:40:53;;;;;;;6.40;2.78;;;37.80;49.50;;;;;;5062460;27;87659;-74
2023/09/07 12:43:19;;;;;;;19.27;3.92;;;38.00;49.40;;;;;;5059660;27;86818;-75
2023/09/07 12:45:45;;;;;;;6.70;2.10;;;38.10;49.90;;;;;;5061873;27;86749;-75
2023/09/07 12:48:11;;;;;;;4.82;2.50;;;38.20;47.60;;;;;;5060347;27;85800;-75
2023/09/07 12:50:40;;;;;;;6.25;2.40;;;38.30;48.70;;;;;;5059763;27;87154;-75
2023/09/07 12:53:06;;;;;;;2.45;2.08;;;38.40;48.30;;;;;;5042706;27;89878;-75
2023/09/07 12:55:32;;;;;;;3.83;2.10;;;38.60;50.00;;;;;;5062068;27;86248;-75
2023/09/07 12:58:00;;;;;;;2.38;2.17;;;38.70;48.00;;;;;;5062074;27;86718;-75
2023/09/07 13:00:26;;;;;;;3.47;1.98;;;38.90;50.10;;;;;;5065113;27;86407;-75
2023/09/07 13:02:52;;;;;;;4.13;1.85;;;39.00;48.60;;;;;;5062671;27;86497;-76
2023/09/07 13:05:19;;;;;;;6.53;2.50;;;39.20;48.40;;;;;;5042526;27;86316;-75
2023/09/07 13:07:45;;;;;;;6.68;2.42;;;39.20;45.80;;;;;;5060431;27;86435;-76
2023/09/07 13:10:14;;;;;;;2.78;2.20;;;39.30;47.50;;;;;;5060101;27;87951;-75
2023/09/07 13:12:40;;;;;;;4.63;2.35;;;39.50;47.50;;;;;;5039331;27;89812;-75
2023/09/07 13:15:07;;;;;;;5.28;2.40;;;39.60;47.60;;;;;;5060167;27;86416;-75
2023/09/07 13:17:35;;;;;;;2.72;2.08;;;39.80;48.00;;;;;;5055513;27;86733;-76
2023/09/07 13:20:01;;;;;;;3.20;2.20;;;40.00;47.70;;;;;;5053872;27;87902;-77
2023/09/07 13:50:47;;;;;;;;;;;;;;;;;;;;;
2023/09/07 15:10:43;;;;;;;4.18;2.05;;;45.60;39.00;;;;;;5088406;27;86832;-75
2023/09/07 16:05:45;;;;;;;;;;;;;;;;;;;;;
2023/09/07 16:14:33;;;;;;;4.40;1.90;;;46.00;37.30;;;;;;5026869;28;115210;-77
2023/09/07 17:23:21;;;;;;;;;;;;;;;;;;;;;
2023/09/07 17:26:48;;;;;;;2.97;2.30;;;37.10;48.10;;;;;;4769984;29;115614;-78
2023/09/07 17:44:15;;;;;;;5.28;2.97;;;33.00;55.60;;;;;;4704271;29;86801;-77
2023/09/07 17:46:46;;;;;;;4.18;3.05;;;32.50;56.70;;;;;;4728343;29;90492;-76
2023/09/07 17:49:15;;;;;;;6.65;2.88;;;32.00;55.10;;;;;;4866603;28;86280;-76
2023/09/07 17:51:54;;;;;;;6.65;3.22;;;31.70;58.20;;;;;;4961467;28;86757;-76
2023/09/07 17:54:54;;;;;;;6.93;3.15;;;31.30;58.40;;;;;;5046076;27;87114;-76
2023/09/07 17:57:34;;;;;;;7.03;3.30;;;31.00;59.70;;;;;;5047865;27;86882;-76
2023/09/07 18:03:17;;;;;;;;;;;;;;;;;;;;;
2023/09/07 18:08:59;;;;;;;;;;;;;;;;;;;;;
2023/09/07 18:11:44;;;;;;;8.60;3.80;;;29.30;63.90;;;;;;5019279;27;109720;-76
2023/09/07 18:14:18;;;;;;;3.55;3.25;;;29.00;64.70;;;;;;5029517;27;86265;-75
2023/09/07 18:16:45;;;;;;;5.78;3.75;;;28.70;65.50;;;;;;5029758;27;87050;-75
2023/09/07 18:19:11;;;;;;;5.55;3.88;;;28.50;66.40;;;;;;5025351;27;90026;-76
2023/09/07 18:21:40;;;;;;;6.85;3.45;;;28.20;67.10;;;;;;5044941;27;86742;-76
2023/09/07 18:24:22;;;;;;;6.25;3.70;;;28.00;68.20;;;;;;5043994;27;86316;-75
2023/09/07 18:26:59;;;;;;;4.55;3.53;;;27.80;68.80;;;;;;5017494;27;89555;-76
2023/09/07 18:29:28;;;;;;;6.43;3.40;;;27.50;69.50;;;;;;5046199;27;86899;-76
2023/09/07 18:32:03;;;;;;;7.05;3.95;;;27.30;70.70;;;;;;5045951;27;86427;-75
2023/09/07 18:34:29;;;;;;;4.80;3.50;;;27.10;70.90;;;;;;5044375;27;86007;-75
2023/09/07 18:36:55;;;;;;;4.68;3.78;;;26.90;71.90;;;;;;5048002;27;89866;-75
2023/09/07 18:39:26;;;;;;;6.30;3.55;;;26.70;72.40;;;;;;5046650;27;85869;-75
2023/09/07 18:41:52;;;;;;;4.93;3.90;;;26.50;73.30;;;;;;5046363;27;86166;-75
2023/09/07 18:44:27;;;;;;;7.97;4.15;;;26.30;74.20;;;;;;5038605;27;86384;-75
2023/09/07 18:46:57;;;;;;;7.28;3.78;;;26.10;74.70;;;;;;5046037;27;87108;-76
2023/09/07 18:49:26;;;;;;;10.15;3.95;;;25.90;76.50;;;;;;5045793;27;87004;-75
2023/09/07 18:51:52;;;;;;;7.32;4.60;;;25.70;78.20;;;;;;5047471;27;86218;-75
2023/09/07 18:54:25;;;;;;;10.50;3.88;;;25.40;79.30;;;;;;5045052;27;93492;-75
2023/09/07 18:57:04;;;;;;;6.38;3.85;;;25.30;80.60;;;;;;5048235;27;87883;-75
2023/09/07 18:59:33;;;;;;;8.57;4.55;;;25.10;81.50;;;;;;5046074;27;87108;-75
2023/09/07 19:02:09;;;;;;;15.38;4.88;;;24.90;82.50;;;;;;5027847;27;86501;-76
2023/09/07 19:04:38;;;;;;;7.65;4.30;;;24.80;84.50;;;;;;5046812;27;85890;-75
2023/09/07 19:07:06;;;;;;;9.02;4.35;;;24.60;85.70;;;;;;5029975;27;88836;-76
2023/09/07 19:09:37;;;;;;;6.20;3.78;;;24.50;87.10;;;;;;5046186;27;87405;-75
2023/09/07 19:12:13;;;;;;;13.93;4.97;;;24.40;88.10;;;;;;5047859;27;86135;-74
2023/09/07 19:14:40;;;;;;;10.50;4.47;;;24.20;89.50;;;;;;5047712;27;86241;-75
2023/09/07 19:17:10;;;;;;;6.22;4.63;;;24.00;90.20;;;;;;5040319;27;86401;-75
2023/09/07 19:19:41;;;;;;;9.50;4.53;;;23.80;90.40;;;;;;5031430;27;86481;-75
2023/09/07 19:22:13;;;;;;;5.75;4.75;;;23.70;91.00;;;;;;5042845;27;85777;-75
2023/09/07 19:24:38;;;;;;;6.55;4.60;;;23.60;91.30;;;;;;5020325;27;86617;-75
2023/09/07 19:27:06;;;;;;;7.07;5.03;;;23.40;91.80;;;;;;5051455;27;86362;-76
2023/09/07 19:29:33;;;;;;;7.22;4.63;;;23.30;92.10;;;;;;5047806;27;86947;-75
2023/09/07 19:31:59;;;;;;;7.20;4.05;;;23.20;92.50;;;;;;5030274;27;86399;-75
2023/09/07 19:34:24;;;;;;;9.73;5.13;;;23.10;92.70;;;;;;5031482;27;86651;-75
2023/09/07 19:36:50;;;;;;;11.07;5.00;;;23.00;93.10;;;;;;5049842;27;86564;-75
2023/09/07 19:39:18;;;;;;;7.18;4.82;;;22.80;93.40;;;;;;5049092;27;86730;-75
2023/09/07 19:41:44;;;;;;;7.07;4.72;;;22.70;93.50;;;;;;5049161;27;86318;-76
2023/09/07 19:44:10;;;;;;;8.10;5.00;;;22.60;93.80;;;;;;5049183;27;85798;-75
2023/09/07 19:46:35;;;;;;;6.78;5.47;;;22.50;94.00;;;;;;5030126;27;90287;-75
2023/09/07 19:49:01;;;;;;;9.23;5.90;;;22.50;94.30;;;;;;5049269;27;86525;-75
2023/09/07 19:51:27;;;;;;;9.50;5.63;;;22.40;94.90;;;;;;5049159;27;86206;-75
2023/09/07 19:53:54;;;;;;;9.43;5.45;;;22.30;94.80;;;;;;5033122;27;86286;-75
2023/09/07 19:56:23;;;;;;;10.40;5.65;;;22.20;95.00;;;;;;5050010;27;87249;-75
2023/09/07 19:58:52;;;;;;;10.02;5.60;;;22.10;95.40;;;;;;5050859;27;86823;-76
2023/09/07 20:01:19;;;;;;;8.50;5.50;;;22.00;95.70;;;;;;5050304;27;86627;-74
2023/09/07 20:03:46;;;;;;;8.02;5.05;;;21.80;95.80;;;;;;5051436;27;86399;-76
2023/09/07 20:06:13;;;;;;;8.77;5.38;;;21.70;96.00;;;;;;5049594;27;87165;-75
2023/09/07 20:08:40;;;;;;;13.52;5.68;;;21.70;96.00;;;;;;5050022;27;86191;-75
2023/09/07 20:11:07;;;;;;;6.55;5.28;;;21.60;96.40;;;;;;5050966;27;86354;-75
2023/09/07 20:13:32;;;;;;;8.93;5.53;;;21.50;96.30;;;;;;5048978;27;86469;-75
2023/09/07 20:15:58;;;;;;;9.80;5.65;;;21.50;96.60;;;;;;5049833;27;88106;-75
2023/09/07 20:18:24;;;;;;;9.70;5.97;;;21.40;96.70;;;;;;5050283;27;86484;-75
2023/09/07 20:20:50;;;;;;;10.77;5.38;;;21.40;96.90;;;;;;5033103;27;86793;-76
2023/09/07 20:23:15;;;;;;;9.90;5.50;;;21.30;97.00;;;;;;5049783;27;85864;-75
2023/09/07 20:25:44;;;;;;;7.68;5.25;;;21.20;97.30;;;;;;5050849;27;86322;-75
2023/09/07 20:28:09;;;;;;;7.28;5.68;;;21.10;97.50;;;;;;5050857;27;86977;-75
2023/09/07 20:30:35;;;;;;;9.23;5.70;;;21.10;97.70;;;;;;5032904;27;86917;-75
2023/09/07 20:33:01;;;;;;;8.35;5.68;;;21.00;97.80;;;;;;5027837;27;85910;-75
2023/09/07 20:35:30;;;;;;;8.38;5.40;;;20.90;97.70;;;;;;5030849;27;90511;-75
2023/09/07 20:38:05;;;;;;;10.10;5.65;;;20.80;98.00;;;;;;5050488;27;86172;-75
2023/09/07 20:40:31;;;;;;;11.63;5.93;;;20.80;98.10;;;;;;5029916;27;86298;-76
2023/09/07 20:42:57;;;;;;;7.53;5.72;;;20.70;98.30;;;;;;5016996;27;86429;-76
2023/09/07 20:45:24;;;;;;;8.52;5.43;;;20.70;98.30;;;;;;5049604;27;87875;-76
2023/09/07 20:47:51;;;;;;;10.38;6.22;;;20.70;98.50;;;;;;5049624;27;87439;-76
2023/09/07 20:50:17;;;;;;;8.27;5.65;;;20.60;98.40;;;;;;5049544;27;86675;-75
2023/09/07 20:52:42;;;;;;;9.15;5.97;;;20.60;98.50;;;;;;5030416;27;86593;-76
2023/09/07 20:55:11;;;;;;;9.27;6.30;;;20.50;98.70;;;;;;5014718;27;87876;-76
2023/09/07 20:57:38;;;;;;;9.35;6.20;;;20.50;98.60;;;;;;5014817;27;89608;-76
2023/09/07 21:00:13;;;;;;;11.30;6.57;;;20.40;98.70;;;;;;5016682;27;86140;-76
2023/09/07 21:02:39;;;;;;;7.88;6.05;;;20.30;98.80;;;;;;5040445;27;85935;-75
2023/09/07 21:05:13;;;;;;;8.57;6.57;;;20.20;99.00;;;;;;5032549;27;90990;-75
2023/09/07 21:07:39;;;;;;;;;;;20.10;99.10;;;;;;5047890;27;86370;-75
2023/09/07 21:10:05;;;;;;;8.52;6.25;;;20.10;99.60;;;;;;5053126;27;86339;-76
2023/09/07 21:12:30;;;;;;;9.85;6.57;;;20.10;99.20;;;;;;5048029;27;86184;-76
2023/09/07 21:14:56;;;;;;;9.75;6.18;;;20.00;99.20;;;;;;5051671;27;88495;-76
2023/09/07 21:17:24;;;;;;;10.77;6.90;;;20.00;99.40;;;;;;5048040;27;86723;-75
2023/09/07 21:19:50;;;;;;;9.60;6.10;;;19.90;99.40;;;;;;5029433;27;86552;-75
2023/09/07 21:22:16;;;;;;;10.15;5.97;;;19.90;99.40;;;;;;5051065;27;85996;-76
2023/09/07 21:24:41;;;;;;;9.43;7.10;;;19.80;99.50;;;;;;5030144;27;89376;-75
2023/09/07 21:27:10;;;;;;;8.80;6.38;;;19.80;99.70;;;;;;5012851;27;88883;-76
2023/09/07 21:29:36;;;;;;;10.68;6.10;;;19.70;99.70;;;;;;5038754;27;86458;-76
2023/09/07 21:32:04;;;;;;;9.68;6.50;;;19.70;99.70;;;;;;5048915;27;86540;-75
2023/09/07 21:34:30;;;;;;;7.88;6.55;;;19.70;99.80;;;;;;5047648;27;87841;-76
2023/09/07 21:36:55;;;;;;;9.30;6.68;;;19.70;99.90;;;;;;5049273;27;86717;-76
2023/09/07 21:39:24;;;;;;;10.75;7.10;;;19.60;99.80;;;;;;5046673;27;86089;-76
2023/09/07 21:41:53;;;;;;;12.18;7.43;;;19.50;99.90;;;;;;5046794;27;86382;-76
2023/09/07 21:44:20;;;;;;;12.85;7.97;;;19.50;99.90;;;;;;4999854;28;90020;-75
2023/09/07 21:46:52;;;;;;;9.20;7.47;;;19.40;99.90;;;;;;5042953;27;87047;-76
2023/09/07 21:49:21;;;;;;;8.55;7.22;;;19.40;99.90;;;;;;5030573;27;86272;-76
2023/09/07 21:51:48;;;;;;;9.75;7.95;;;19.30;99.90;;;;;;5005672;27;86560;-76
2023/09/07 21:54:17;;;;;;;9.95;8.35;;;19.20;99.90;;;;;;5046782;27;87374;-76
2023/09/07 21:56:44;;;;;;;9.07;7.72;;;19.30;99.90;;;;;;5029323;27;87391;-75
2023/09/07 21:59:09;;;;;;;12.77;7.32;;;19.20;99.90;;;;;;5024519;27;86394;-76
2023/09/07 22:01:37;;;;;;;12.05;7.72;;;19.10;99.90;;;;;;5048198;27;86408;-75
2023/09/07 22:04:03;;;;;;;12.02;7.13;;;19.10;99.90;;;;;;5049636;27;86069;-76
2023/09/07 22:06:29;;;;;;;10.50;8.02;;;19.10;99.90;;;;;;5047567;27;86613;-75
2023/09/07 22:08:55;;;;;;;11.13;7.43;;;19.10;99.90;;;;;;5047428;27;85930;-76
2023/09/07 22:11:20;;;;;;;9.00;6.82;;;19.00;99.90;;;;;;5046553;27;86994;-75
2023/09/07 22:13:46;;;;;;;13.35;7.40;;;19.00;99.90;;;;;;5030047;27;90448;-75
2023/09/07 22:16:12;;;;;;;8.55;7.28;;;19.00;99.90;;;;;;5013753;27;89508;-75
2023/09/07 22:18:38;;;;;;;11.75;7.30;;;18.90;99.90;;;;;;5046407;27;86884;-76
2023/09/07 22:21:07;;;;;;;9.13;7.40;;;18.80;99.90;;;;;;5022952;27;86332;-75
2023/09/07 22:23:33;;;;;;;10.90;8.27;;;18.70;99.90;;;;;;5035315;27;87621;-76
2023/09/07 22:25:58;;;;;;;10.20;7.18;;;18.70;99.90;;;;;;5047506;27;86066;-75
2023/09/07 22:28:34;;;;;;;10.35;7.57;;;18.70;99.90;;;;;;5047478;27;86299;-75
2023/09/07 22:31:00;;;;;;;12.13;7.35;;;18.70;99.90;;;;;;5030173;27;86469;-75
2023/09/07 22:33:26;;;;;;;11.23;7.18;;;18.70;99.90;;;;;;5012042;27;90568;-76
2023/09/07 22:40:39;;;;;;;;;;;;;;;;;;;;;
2023/09/07 22:46:36;;;;;;;9.18;6.47;;;18.60;99.90;;;;;;4749483;29;90710;-75
2023/09/07 22:49:02;;;;;;;10.93;7.10;;;18.60;99.90;;;;;;4824428;29;87907;-75
2023/09/07 22:51:31;;;;;;;9.20;6.95;;;18.60;99.90;;;;;;4995540;28;89114;-76
2023/09/07 22:53:57;;;;;;;11.35;7.35;;;18.50;99.90;;;;;;5043304;27;86463;-75
2023/09/07 22:56:25;;;;;;;14.40;7.18;;;18.50;99.90;;;;;;5048491;27;88178;-75